sensor_id;sensor_type;location;lat;lon;timestamp;P1;durP1;ratioP1;P2;durP2;ratioP2
10246;SDS011;5168;47.854;7.944;2023-03-03T00:02:21;35.47;;;19.13;;
10246;SDS011;5168;47.854;7.944;2023-03-03T00:04:47;29.70;;;17.73;;
10246;SDS011;5168;47.854;7.944;2023-03-03T00:07:13;32.83;;;18.30;;
10246;SDS011;5168;47.854;7.944;2023-03-03T00:09:45;36.47;;;21.17;;
10246;SDS011;5168;47.854;7.944;2023-03-03T00:12:17;39.50;;;19.67;;
10246;SDS011;5168;47.854;7.944;2023-03-03T00:14:49;44.13;;;20.70;;
10246;SDS011;5168;47.854;7.944;2023-03-03T00:17:19;40.90;;;21.47;;
10246;SDS011;5168;47.854;7.944;2023-03-03T00:19:49;37.57;;;21.43;;
10246;SDS011;5168;47.854;7.944;2023-03-03T00:22:21;39.30;;;21.43;;
10246;SDS011;5168;47.854;7.944;2023-03-03T00:24:53;40.63;;;21.87;;
10246;SDS011;5168;47.854;7.944;2023-03-03T00:27:26;41.07;;;21.37;;
10246;SDS011;5168;47.854;7.944;2023-03-03T00:29:56;41.90;;;21.13;;
10246;SDS011;5168;47.854;7.944;2023-03-03T00:32:24;38.50;;;19.77;;
10246;SDS011;5168;47.854;7.944;2023-03-03T00:34:52;41.67;;;21.53;;
10246;SDS011;5168;47.854;7.944;2023-03-03T00:37:27;41.53;;;20.97;;
10246;SDS011;5168;47.854;7.944;2023-03-03T00:39:58;31.87;;;19.53;;
10246;SDS011;5168;47.854;7.944;2023-03-03T00:42:28;29.60;;;18.17;;
10246;SDS011;5168;47.854;7.944;2023-03-03T00:44:57;34.87;;;19.17;;
10246;SDS011;5168;47.854;7.944;2023-03-03T00:47:25;30.83;;;18.07;;
10246;SDS011;5168;47.854;7.944;2023-03-03T00:52:32;24.57;;;15.43;;
10246;SDS011;5168;47.854;7.944;2023-03-03T00:55:00;30.77;;;18.37;;
10246;SDS011;5168;47.854;7.944;2023-03-03T00:57:26;27.07;;;16.27;;
10246;SDS011;5168;47.854;7.944;2023-03-03T00:59:52;25.80;;;16.53;;
10246;SDS011;5168;47.854;7.944;2023-03-03T01:02:18;30.57;;;16.97;;
10246;SDS011;5168;47.854;7.944;2023-03-03T01:04:46;27.20;;;16.17;;
10246;SDS011;5168;47.854;7.944;2023-03-03T01:07:14;27.63;;;16.10;;
10246;SDS011;5168;47.854;7.944;2023-03-03T01:09:40;28.83;;;17.00;;
10246;SDS011;5168;47.854;7.944;2023-03-03T01:12:07;25.33;;;17.17;;
10246;SDS011;5168;47.854;7.944;2023-03-03T01:14:33;31.67;;;18.13;;
10246;SDS011;5168;47.854;7.944;2023-03-03T01:16:58;31.07;;;18.63;;
10246;SDS011;5168;47.854;7.944;2023-03-03T01:19:24;32.60;;;18.60;;
10246;SDS011;5168;47.854;7.944;2023-03-03T01:21:50;28.43;;;17.63;;
10246;SDS011;5168;47.854;7.944;2023-03-03T01:24:15;29.10;;;18.67;;
10246;SDS011;5168;47.854;7.944;2023-03-03T01:26:41;29.20;;;17.10;;
10246;SDS011;5168;47.854;7.944;2023-03-03T01:29:07;31.63;;;20.10;;
10246;SDS011;5168;47.854;7.944;2023-03-03T01:31:33;33.27;;;19.30;;
10246;SDS011;5168;47.854;7.944;2023-03-03T01:33:59;28.73;;;18.07;;
10246;SDS011;5168;47.854;7.944;2023-03-03T01:36:25;24.57;;;16.80;;
10246;SDS011;5168;47.854;7.944;2023-03-03T01:38:51;30.17;;;17.53;;
10246;SDS011;5168;47.854;7.944;2023-03-03T01:41:17;24.43;;;15.70;;
10246;SDS011;5168;47.854;7.944;2023-03-03T01:43:43;26.27;;;15.87;;
10246;SDS011;5168;47.854;7.944;2023-03-03T01:48:48;23.17;;;14.33;;
10246;SDS011;5168;47.854;7.944;2023-03-03T01:51:25;23.73;;;15.93;;
10246;SDS011;5168;47.854;7.944;2023-03-03T01:54:06;29.87;;;15.90;;
10246;SDS011;5168;47.854;7.944;2023-03-03T01:56:38;26.40;;;16.97;;
10246;SDS011;5168;47.854;7.944;2023-03-03T01:59:13;29.60;;;17.40;;
10246;SDS011;5168;47.854;7.944;2023-03-03T02:01:44;29.00;;;17.40;;
10246;SDS011;5168;47.854;7.944;2023-03-03T02:04:11;25.30;;;16.67;;
10246;SDS011;5168;47.854;7.944;2023-03-03T02:06:39;25.97;;;16.03;;
10246;SDS011;5168;47.854;7.944;2023-03-03T02:09:14;28.33;;;17.07;;
10246;SDS011;5168;47.854;7.944;2023-03-03T02:12:14;25.27;;;16.10;;
10246;SDS011;5168;47.854;7.944;2023-03-03T02:14:42;29.80;;;17.47;;
10246;SDS011;5168;47.854;7.944;2023-03-03T02:17:08;29.30;;;17.53;;
10246;SDS011;5168;47.854;7.944;2023-03-03T02:22:02;24.13;;;16.33;;
10246;SDS011;5168;47.854;7.944;2023-03-03T02:24:38;24.53;;;14.93;;
10246;SDS011;5168;47.854;7.944;2023-03-03T02:27:08;28.20;;;18.00;;
10246;SDS011;5168;47.854;7.944;2023-03-03T02:29:34;27.03;;;16.03;;
10246;SDS011;5168;47.854;7.944;2023-03-03T02:32:01;27.13;;;17.00;;
10246;SDS011;5168;47.854;7.944;2023-03-03T02:34:26;27.93;;;17.43;;
10246;SDS011;5168;47.854;7.944;2023-03-03T02:36:52;24.37;;;17.00;;
10246;SDS011;5168;47.854;7.944;2023-03-03T02:44:14;24.33;;;15.23;;
10246;SDS011;5168;47.854;7.944;2023-03-03T02:46:42;21.90;;;13.83;;
10246;SDS011;5168;47.854;7.944;2023-03-03T02:49:10;21.80;;;13.67;;
10246;SDS011;5168;47.854;7.944;2023-03-03T02:51:38;25.73;;;15.63;;
10246;SDS011;5168;47.854;7.944;2023-03-03T02:54:04;23.10;;;14.03;;
10246;SDS011;5168;47.854;7.944;2023-03-03T02:56:31;28.73;;;16.53;;
10246;SDS011;5168;47.854;7.944;2023-03-03T02:58:57;26.00;;;15.97;;
10246;SDS011;5168;47.854;7.944;2023-03-03T03:01:23;29.70;;;18.53;;
10246;SDS011;5168;47.854;7.944;2023-03-03T03:03:49;31.07;;;17.60;;
10246;SDS011;5168;47.854;7.944;2023-03-03T03:06:14;28.80;;;16.57;;
10246;SDS011;5168;47.854;7.944;2023-03-03T03:08:40;23.00;;;13.87;;
10246;SDS011;5168;47.854;7.944;2023-03-03T03:11:06;37.73;;;19.80;;
10246;SDS011;5168;47.854;7.944;2023-03-03T03:13:32;32.73;;;19.00;;
10246;SDS011;5168;47.854;7.944;2023-03-03T03:15:58;31.27;;;18.23;;
10246;SDS011;5168;47.854;7.944;2023-03-03T03:18:24;27.47;;;16.90;;
10246;SDS011;5168;47.854;7.944;2023-03-03T03:20:50;32.13;;;18.40;;
10246;SDS011;5168;47.854;7.944;2023-03-03T03:23:17;32.30;;;16.93;;
10246;SDS011;5168;47.854;7.944;2023-03-03T03:25:42;26.67;;;15.43;;
10246;SDS011;5168;47.854;7.944;2023-03-03T03:28:11;31.73;;;18.53;;
10246;SDS011;5168;47.854;7.944;2023-03-03T03:30:38;31.83;;;17.70;;
10246;SDS011;5168;47.854;7.944;2023-03-03T03:33:03;32.47;;;17.37;;
10246;SDS011;5168;47.854;7.944;2023-03-03T03:35:31;32.43;;;18.07;;
10246;SDS011;5168;47.854;7.944;2023-03-03T03:37:57;29.73;;;17.30;;
10246;SDS011;5168;47.854;7.944;2023-03-03T03:40:23;37.67;;;20.37;;
10246;SDS011;5168;47.854;7.944;2023-03-03T03:42:50;35.17;;;20.00;;
10246;SDS011;5168;47.854;7.944;2023-03-03T03:45:19;33.97;;;18.57;;
10246;SDS011;5168;47.854;7.944;2023-03-03T03:47:45;33.93;;;19.53;;
10246;SDS011;5168;47.854;7.944;2023-03-03T03:50:11;31.83;;;16.93;;
10246;SDS011;5168;47.854;7.944;2023-03-03T03:52:37;28.97;;;17.97;;
10246;SDS011;5168;47.854;7.944;2023-03-03T03:55:03;32.13;;;17.50;;
10246;SDS011;5168;47.854;7.944;2023-03-03T03:57:29;38.47;;;19.47;;
10246;SDS011;5168;47.854;7.944;2023-03-03T03:59:55;33.27;;;18.37;;
10246;SDS011;5168;47.854;7.944;2023-03-03T04:02:21;31.73;;;18.03;;
10246;SDS011;5168;47.854;7.944;2023-03-03T04:04:47;30.20;;;17.40;;
10246;SDS011;5168;47.854;7.944;2023-03-03T04:07:13;34.93;;;20.23;;
10246;SDS011;5168;47.854;7.944;2023-03-03T04:09:38;32.60;;;18.63;;
10246;SDS011;5168;47.854;7.944;2023-03-03T04:12:04;36.83;;;19.90;;
10246;SDS011;5168;47.854;7.944;2023-03-03T04:14:29;34.80;;;20.53;;
10246;SDS011;5168;47.854;7.944;2023-03-03T04:16:55;33.50;;;19.10;;
10246;SDS011;5168;47.854;7.944;2023-03-03T04:19:21;28.10;;;17.53;;
10246;SDS011;5168;47.854;7.944;2023-03-03T04:21:48;28.70;;;17.13;;
10246;SDS011;5168;47.854;7.944;2023-03-03T04:24:14;28.47;;;16.90;;
10246;SDS011;5168;47.854;7.944;2023-03-03T04:26:39;32.87;;;19.20;;
10246;SDS011;5168;47.854;7.944;2023-03-03T04:29:05;29.00;;;16.97;;
10246;SDS011;5168;47.854;7.944;2023-03-03T04:31:30;33.17;;;17.90;;
10246;SDS011;5168;47.854;7.944;2023-03-03T04:33:56;27.93;;;17.40;;
10246;SDS011;5168;47.854;7.944;2023-03-03T04:36:22;26.40;;;16.10;;
10246;SDS011;5168;47.854;7.944;2023-03-03T04:38:48;24.83;;;15.80;;
10246;SDS011;5168;47.854;7.944;2023-03-03T04:41:13;30.47;;;17.93;;
10246;SDS011;5168;47.854;7.944;2023-03-03T04:43:39;28.40;;;16.67;;
10246;SDS011;5168;47.854;7.944;2023-03-03T04:46:05;23.60;;;15.23;;
10246;SDS011;5168;47.854;7.944;2023-03-03T04:48:31;25.00;;;14.47;;
10246;SDS011;5168;47.854;7.944;2023-03-03T04:50:57;28.47;;;17.87;;
10246;SDS011;5168;47.854;7.944;2023-03-03T04:53:23;30.83;;;18.27;;
10246;SDS011;5168;47.854;7.944;2023-03-03T04:55:52;25.93;;;15.47;;
10246;SDS011;5168;47.854;7.944;2023-03-03T04:58:18;34.17;;;18.00;;
10246;SDS011;5168;47.854;7.944;2023-03-03T05:00:45;35.73;;;18.70;;
10246;SDS011;5168;47.854;7.944;2023-03-03T05:03:11;29.77;;;17.50;;
10246;SDS011;5168;47.854;7.944;2023-03-03T05:05:37;25.40;;;15.70;;
10246;SDS011;5168;47.854;7.944;2023-03-03T05:08:04;25.10;;;15.53;;
10246;SDS011;5168;47.854;7.944;2023-03-03T05:10:29;25.97;;;14.87;;
10246;SDS011;5168;47.854;7.944;2023-03-03T05:12:55;25.03;;;14.80;;
10246;SDS011;5168;47.854;7.944;2023-03-03T05:15:21;28.03;;;16.93;;
10246;SDS011;5168;47.854;7.944;2023-03-03T05:17:46;29.20;;;17.97;;
10246;SDS011;5168;47.854;7.944;2023-03-03T05:20:13;31.17;;;18.13;;
10246;SDS011;5168;47.854;7.944;2023-03-03T05:22:38;25.57;;;16.37;;
10246;SDS011;5168;47.854;7.944;2023-03-03T05:25:04;26.03;;;15.47;;
10246;SDS011;5168;47.854;7.944;2023-03-03T05:27:31;26.07;;;16.30;;
10246;SDS011;5168;47.854;7.944;2023-03-03T05:29:57;28.20;;;17.43;;
10246;SDS011;5168;47.854;7.944;2023-03-03T05:32:22;24.80;;;15.63;;
10246;SDS011;5168;47.854;7.944;2023-03-03T05:34:48;32.20;;;16.33;;
10246;SDS011;5168;47.854;7.944;2023-03-03T05:37:16;32.80;;;18.87;;
10246;SDS011;5168;47.854;7.944;2023-03-03T05:39:41;27.00;;;17.30;;
10246;SDS011;5168;47.854;7.944;2023-03-03T05:42:08;26.93;;;16.50;;
10246;SDS011;5168;47.854;7.944;2023-03-03T05:44:37;30.10;;;17.17;;
10246;SDS011;5168;47.854;7.944;2023-03-03T05:47:02;30.27;;;17.60;;
10246;SDS011;5168;47.854;7.944;2023-03-03T05:49:28;33.40;;;19.77;;
10246;SDS011;5168;47.854;7.944;2023-03-03T05:51:54;29.60;;;18.10;;
10246;SDS011;5168;47.854;7.944;2023-03-03T05:54:20;24.90;;;16.00;;
10246;SDS011;5168;47.854;7.944;2023-03-03T05:56:45;25.00;;;15.70;;
10246;SDS011;5168;47.854;7.944;2023-03-03T05:59:11;24.47;;;14.57;;
10246;SDS011;5168;47.854;7.944;2023-03-03T06:01:36;31.00;;;17.37;;
10246;SDS011;5168;47.854;7.944;2023-03-03T06:04:02;28.73;;;18.10;;
10246;SDS011;5168;47.854;7.944;2023-03-03T06:06:28;30.23;;;18.17;;
10246;SDS011;5168;47.854;7.944;2023-03-03T06:08:54;27.63;;;17.27;;
10246;SDS011;5168;47.854;7.944;2023-03-03T06:11:20;30.17;;;18.37;;
10246;SDS011;5168;47.854;7.944;2023-03-03T06:13:45;32.43;;;19.73;;
10246;SDS011;5168;47.854;7.944;2023-03-03T06:16:11;34.67;;;18.37;;
10246;SDS011;5168;47.854;7.944;2023-03-03T06:18:37;32.03;;;20.37;;
10246;SDS011;5168;47.854;7.944;2023-03-03T06:21:03;34.00;;;18.50;;
10246;SDS011;5168;47.854;7.944;2023-03-03T06:23:28;31.30;;;18.70;;
10246;SDS011;5168;47.854;7.944;2023-03-03T06:25:54;28.87;;;17.87;;
10246;SDS011;5168;47.854;7.944;2023-03-03T06:28:20;30.20;;;17.03;;
10246;SDS011;5168;47.854;7.944;2023-03-03T06:30:45;24.07;;;15.80;;
10246;SDS011;5168;47.854;7.944;2023-03-03T06:33:11;28.33;;;16.70;;
10246;SDS011;5168;47.854;7.944;2023-03-03T06:35:36;29.47;;;17.90;;
10246;SDS011;5168;47.854;7.944;2023-03-03T06:38:02;32.23;;;18.87;;
10246;SDS011;5168;47.854;7.944;2023-03-03T06:40:28;29.80;;;17.90;;
10246;SDS011;5168;47.854;7.944;2023-03-03T06:42:54;30.87;;;18.43;;
10246;SDS011;5168;47.854;7.944;2023-03-03T06:45:20;29.43;;;17.27;;
10246;SDS011;5168;47.854;7.944;2023-03-03T06:47:45;27.70;;;16.67;;
10246;SDS011;5168;47.854;7.944;2023-03-03T06:50:11;33.77;;;19.43;;
10246;SDS011;5168;47.854;7.944;2023-03-03T06:52:37;32.57;;;17.63;;
10246;SDS011;5168;47.854;7.944;2023-03-03T06:55:09;28.30;;;16.93;;
10246;SDS011;5168;47.854;7.944;2023-03-03T06:57:42;29.07;;;18.27;;
10246;SDS011;5168;47.854;7.944;2023-03-03T07:02:49;34.83;;;19.53;;
10246;SDS011;5168;47.854;7.944;2023-03-03T07:05:26;35.83;;;21.00;;
10246;SDS011;5168;47.854;7.944;2023-03-03T07:07:53;32.33;;;20.63;;
10246;SDS011;5168;47.854;7.944;2023-03-03T07:10:24;31.07;;;17.70;;
10246;SDS011;5168;47.854;7.944;2023-03-03T07:12:55;39.07;;;22.60;;
10246;SDS011;5168;47.854;7.944;2023-03-03T07:15:36;37.33;;;21.93;;
10246;SDS011;5168;47.854;7.944;2023-03-03T07:18:02;35.67;;;20.73;;
10246;SDS011;5168;47.854;7.944;2023-03-03T07:20:43;33.30;;;20.40;;
10246;SDS011;5168;47.854;7.944;2023-03-03T07:23:14;28.53;;;18.37;;
10246;SDS011;5168;47.854;7.944;2023-03-03T07:25:47;36.60;;;21.70;;
10246;SDS011;5168;47.854;7.944;2023-03-03T07:28:23;34.90;;;22.20;;
10246;SDS011;5168;47.854;7.944;2023-03-03T07:30:53;33.47;;;20.03;;
10246;SDS011;5168;47.854;7.944;2023-03-03T07:35:51;29.20;;;18.37;;
10246;SDS011;5168;47.854;7.944;2023-03-03T07:40:47;26.20;;;17.07;;
10246;SDS011;5168;47.854;7.944;2023-03-03T07:45:51;31.63;;;19.30;;
10246;SDS011;5168;47.854;7.944;2023-03-03T07:50:43;22.77;;;15.53;;
10246;SDS011;5168;47.854;7.944;2023-03-03T07:53:11;29.70;;;18.63;;
10246;SDS011;5168;47.854;7.944;2023-03-03T07:55:52;32.70;;;19.93;;
10246;SDS011;5168;47.854;7.944;2023-03-03T07:58:22;29.40;;;17.77;;
10246;SDS011;5168;47.854;7.944;2023-03-03T08:03:50;25.93;;;17.77;;
10246;SDS011;5168;47.854;7.944;2023-03-03T08:09:00;32.23;;;19.17;;
10246;SDS011;5168;47.854;7.944;2023-03-03T08:11:48;26.80;;;16.93;;
10246;SDS011;5168;47.854;7.944;2023-03-03T08:14:34;36.60;;;21.00;;
10246;SDS011;5168;47.854;7.944;2023-03-03T08:17:06;35.20;;;20.47;;
10246;SDS011;5168;47.854;7.944;2023-03-03T08:19:45;32.60;;;19.53;;
10246;SDS011;5168;47.854;7.944;2023-03-03T08:22:13;32.47;;;19.70;;
10246;SDS011;5168;47.854;7.944;2023-03-03T08:24:41;28.80;;;18.53;;
10246;SDS011;5168;47.854;7.944;2023-03-03T08:27:07;31.27;;;18.97;;
10246;SDS011;5168;47.854;7.944;2023-03-03T08:29:32;28.93;;;19.33;;
10246;SDS011;5168;47.854;7.944;2023-03-03T08:31:58;33.63;;;20.17;;
10246;SDS011;5168;47.854;7.944;2023-03-03T08:34:24;32.70;;;20.00;;
10246;SDS011;5168;47.854;7.944;2023-03-03T08:36:50;30.43;;;19.73;;
10246;SDS011;5168;47.854;7.944;2023-03-03T08:39:16;29.87;;;19.60;;
10246;SDS011;5168;47.854;7.944;2023-03-03T08:41:42;26.67;;;17.40;;
10246;SDS011;5168;47.854;7.944;2023-03-03T08:44:08;33.10;;;19.13;;
10246;SDS011;5168;47.854;7.944;2023-03-03T08:46:34;27.80;;;18.23;;
10246;SDS011;5168;47.854;7.944;2023-03-03T08:49:00;31.93;;;20.20;;
10246;SDS011;5168;47.854;7.944;2023-03-03T08:51:26;28.07;;;18.53;;
10246;SDS011;5168;47.854;7.944;2023-03-03T08:53:53;31.73;;;20.37;;
10246;SDS011;5168;47.854;7.944;2023-03-03T08:56:19;32.00;;;19.63;;
10246;SDS011;5168;47.854;7.944;2023-03-03T08:58:44;35.20;;;22.13;;
10246;SDS011;5168;47.854;7.944;2023-03-03T09:01:12;35.23;;;20.87;;
10246;SDS011;5168;47.854;7.944;2023-03-03T09:03:40;34.90;;;22.47;;
10246;SDS011;5168;47.854;7.944;2023-03-03T09:06:06;36.87;;;20.47;;
10246;SDS011;5168;47.854;7.944;2023-03-03T09:08:32;33.67;;;21.83;;
10246;SDS011;5168;47.854;7.944;2023-03-03T09:10:57;34.30;;;21.17;;
10246;SDS011;5168;47.854;7.944;2023-03-03T09:13:24;30.40;;;19.57;;
10246;SDS011;5168;47.854;7.944;2023-03-03T09:15:49;36.83;;;21.33;;
10246;SDS011;5168;47.854;7.944;2023-03-03T09:18:19;32.20;;;18.43;;
10246;SDS011;5168;47.854;7.944;2023-03-03T09:20:50;34.43;;;22.03;;
10246;SDS011;5168;47.854;7.944;2023-03-03T09:26:25;34.47;;;20.87;;
10246;SDS011;5168;47.854;7.944;2023-03-03T09:31:41;28.30;;;18.80;;
10246;SDS011;5168;47.854;7.944;2023-03-03T09:34:14;27.90;;;17.83;;
10246;SDS011;5168;47.854;7.944;2023-03-03T09:36:47;30.80;;;18.73;;
10246;SDS011;5168;47.854;7.944;2023-03-03T09:39:17;27.43;;;17.17;;
10246;SDS011;5168;47.854;7.944;2023-03-03T09:41:56;26.63;;;17.20;;
10246;SDS011;5168;47.854;7.944;2023-03-03T09:50:20;27.57;;;18.00;;
10246;SDS011;5168;47.854;7.944;2023-03-03T10:06:27;24.90;;;16.20;;
10246;SDS011;5168;47.854;7.944;2023-03-03T10:14:45;24.03;;;14.33;;
10246;SDS011;5168;47.854;7.944;2023-03-03T10:17:33;21.03;;;14.77;;
10246;SDS011;5168;47.854;7.944;2023-03-03T10:30:30;22.17;;;14.33;;
10246;SDS011;5168;47.854;7.944;2023-03-03T10:33:00;21.37;;;14.13;;
10246;SDS011;5168;47.854;7.944;2023-03-03T10:35:48;20.43;;;13.90;;
10246;SDS011;5168;47.854;7.944;2023-03-03T10:41:24;21.30;;;13.50;;
10246;SDS011;5168;47.854;7.944;2023-03-03T10:43:57;23.63;;;13.97;;
10246;SDS011;5168;47.854;7.944;2023-03-03T10:49:45;23.37;;;14.37;;
10246;SDS011;5168;47.854;7.944;2023-03-03T10:52:18;25.20;;;15.37;;
10246;SDS011;5168;47.854;7.944;2023-03-03T11:02:59;24.30;;;15.80;;
10246;SDS011;5168;47.854;7.944;2023-03-03T11:05:51;28.63;;;15.57;;
10246;SDS011;5168;47.854;7.944;2023-03-03T11:10:55;24.57;;;15.20;;
10246;SDS011;5168;47.854;7.944;2023-03-03T11:13:26;22.57;;;14.53;;
10246;SDS011;5168;47.854;7.944;2023-03-03T11:27:28;22.93;;;14.57;;
10246;SDS011;5168;47.854;7.944;2023-03-03T11:30:34;24.77;;;15.00;;
10246;SDS011;5168;47.854;7.944;2023-03-03T11:33:14;27.30;;;13.97;;
10246;SDS011;5168;47.854;7.944;2023-03-03T11:38:50;25.23;;;14.13;;
10246;SDS011;5168;47.854;7.944;2023-03-03T11:43:53;25.10;;;13.73;;
10246;SDS011;5168;47.854;7.944;2023-03-03T11:53:58;23.60;;;12.57;;
10246;SDS011;5168;47.854;7.944;2023-03-03T11:56:39;18.40;;;12.53;;
10246;SDS011;5168;47.854;7.944;2023-03-03T12:01:56;19.70;;;13.10;;
10246;SDS011;5168;47.854;7.944;2023-03-03T12:04:52;20.23;;;12.37;;
10246;SDS011;5168;47.854;7.944;2023-03-03T12:07:48;16.07;;;11.80;;
10246;SDS011;5168;47.854;7.944;2023-03-03T12:15:54;18.80;;;11.73;;
10246;SDS011;5168;47.854;7.944;2023-03-03T12:29:49;17.03;;;11.17;;
10246;SDS011;5168;47.854;7.944;2023-03-03T12:35:35;15.30;;;11.10;;
10246;SDS011;5168;47.854;7.944;2023-03-03T12:38:34;13.67;;;9.80;;
10246;SDS011;5168;47.854;7.944;2023-03-03T12:46:58;18.57;;;10.80;;
10246;SDS011;5168;47.854;7.944;2023-03-03T12:54:56;17.77;;;11.10;;
10246;SDS011;5168;47.854;7.944;2023-03-03T12:57:30;19.00;;;11.90;;
10246;SDS011;5168;47.854;7.944;2023-03-03T13:05:26;15.93;;;10.70;;
10246;SDS011;5168;47.854;7.944;2023-03-03T13:10:51;14.87;;;11.47;;
10246;SDS011;5168;47.854;7.944;2023-03-03T13:13:26;15.37;;;10.77;;
10246;SDS011;5168;47.854;7.944;2023-03-03T13:18:42;14.83;;;10.50;;
10246;SDS011;5168;47.854;7.944;2023-03-03T13:24:12;20.30;;;11.20;;
10246;SDS011;5168;47.854;7.944;2023-03-03T13:26:58;16.30;;;10.87;;
10246;SDS011;5168;47.854;7.944;2023-03-03T13:29:35;19.40;;;10.63;;
10246;SDS011;5168;47.854;7.944;2023-03-03T13:32:17;16.03;;;11.13;;
10246;SDS011;5168;47.854;7.944;2023-03-03T13:34:53;17.80;;;10.23;;
10246;SDS011;5168;47.854;7.944;2023-03-03T13:37:28;16.43;;;11.33;;
10246;SDS011;5168;47.854;7.944;2023-03-03T13:42:36;17.90;;;11.30;;
10246;SDS011;5168;47.854;7.944;2023-03-03T13:45:14;17.67;;;9.83;;
10246;SDS011;5168;47.854;7.944;2023-03-03T13:47:47;14.97;;;10.47;;
10246;SDS011;5168;47.854;7.944;2023-03-03T13:50:27;16.53;;;10.40;;
10246;SDS011;5168;47.854;7.944;2023-03-03T14:06:28;17.67;;;12.60;;
10246;SDS011;5168;47.854;7.944;2023-03-03T14:17:02;21.30;;;14.20;;
10246;SDS011;5168;47.854;7.944;2023-03-03T14:19:47;23.50;;;15.07;;
10246;SDS011;5168;47.854;7.944;2023-03-03T14:22:41;26.90;;;15.57;;
10246;SDS011;5168;47.854;7.944;2023-03-03T14:25:13;24.20;;;14.83;;
10246;SDS011;5168;47.854;7.944;2023-03-03T14:27:41;23.73;;;15.63;;
10246;SDS011;5168;47.854;7.944;2023-03-03T14:32:58;23.23;;;15.13;;
10246;SDS011;5168;47.854;7.944;2023-03-03T14:35:39;23.67;;;15.07;;
10246;SDS011;5168;47.854;7.944;2023-03-03T14:38:12;24.07;;;14.63;;
10246;SDS011;5168;47.854;7.944;2023-03-03T14:40:40;21.97;;;14.77;;
10246;SDS011;5168;47.854;7.944;2023-03-03T14:43:22;20.77;;;14.40;;
10246;SDS011;5168;47.854;7.944;2023-03-03T14:45:53;25.23;;;14.67;;
10246;SDS011;5168;47.854;7.944;2023-03-03T14:48:20;23.57;;;14.87;;
10246;SDS011;5168;47.854;7.944;2023-03-03T14:53:14;26.17;;;17.67;;
10246;SDS011;5168;47.854;7.944;2023-03-03T14:55:52;24.87;;;15.83;;
10246;SDS011;5168;47.854;7.944;2023-03-03T15:03:47;26.53;;;13.50;;
10246;SDS011;5168;47.854;7.944;2023-03-03T15:06:27;17.77;;;13.27;;
10246;SDS011;5168;47.854;7.944;2023-03-03T15:09:20;23.20;;;14.23;;
10246;SDS011;5168;47.854;7.944;2023-03-03T15:11:54;18.10;;;13.07;;
10246;SDS011;5168;47.854;7.944;2023-03-03T15:14:28;23.30;;;14.03;;
10246;SDS011;5168;47.854;7.944;2023-03-03T15:16:57;20.73;;;13.63;;
10246;SDS011;5168;47.854;7.944;2023-03-03T15:22:47;21.43;;;14.30;;
10246;SDS011;5168;47.854;7.944;2023-03-03T15:25:31;17.80;;;12.83;;
10246;SDS011;5168;47.854;7.944;2023-03-03T15:33:27;24.47;;;13.83;;
10246;SDS011;5168;47.854;7.944;2023-03-03T15:36:03;22.20;;;13.07;;
10246;SDS011;5168;47.854;7.944;2023-03-03T15:41:06;16.93;;;12.40;;
10246;SDS011;5168;47.854;7.944;2023-03-03T15:43:39;22.33;;;12.50;;
10246;SDS011;5168;47.854;7.944;2023-03-03T15:49:12;22.77;;;11.27;;
10246;SDS011;5168;47.854;7.944;2023-03-03T15:57:51;19.30;;;12.07;;
10246;SDS011;5168;47.854;7.944;2023-03-03T16:03:18;18.13;;;11.93;;
10246;SDS011;5168;47.854;7.944;2023-03-03T16:05:53;19.10;;;12.90;;
10246;SDS011;5168;47.854;7.944;2023-03-03T16:08:39;18.13;;;11.47;;
10246;SDS011;5168;47.854;7.944;2023-03-03T16:11:25;16.50;;;11.30;;
10246;SDS011;5168;47.854;7.944;2023-03-03T16:24:44;15.30;;;9.13;;
10246;SDS011;5168;47.854;7.944;2023-03-03T16:27:40;14.80;;;10.13;;
10246;SDS011;5168;47.854;7.944;2023-03-03T16:36:20;14.67;;;9.50;;
10246;SDS011;5168;47.854;7.944;2023-03-03T16:39:12;20.80;;;11.43;;
10246;SDS011;5168;47.854;7.944;2023-03-03T16:41:46;19.00;;;13.03;;
10246;SDS011;5168;47.854;7.944;2023-03-03T16:47:52;24.77;;;12.30;;
10246;SDS011;5168;47.854;7.944;2023-03-03T16:50:26;18.63;;;12.10;;
10246;SDS011;5168;47.854;7.944;2023-03-03T16:53:22;21.27;;;14.57;;
10246;SDS011;5168;47.854;7.944;2023-03-03T16:56:09;23.77;;;14.60;;
10246;SDS011;5168;47.854;7.944;2023-03-03T17:04:14;21.17;;;11.47;;
10246;SDS011;5168;47.854;7.944;2023-03-03T17:07:02;19.33;;;11.70;;
10246;SDS011;5168;47.854;7.944;2023-03-03T17:09:56;19.40;;;13.07;;
10246;SDS011;5168;47.854;7.944;2023-03-03T17:12:33;21.07;;;12.57;;
10246;SDS011;5168;47.854;7.944;2023-03-03T17:15:30;22.73;;;12.93;;
10246;SDS011;5168;47.854;7.944;2023-03-03T17:18:26;21.67;;;13.30;;
10246;SDS011;5168;47.854;7.944;2023-03-03T17:24:21;25.80;;;15.00;;
10246;SDS011;5168;47.854;7.944;2023-03-03T17:27:35;23.17;;;14.40;;
10246;SDS011;5168;47.854;7.944;2023-03-03T17:33:22;24.63;;;15.27;;
10246;SDS011;5168;47.854;7.944;2023-03-03T17:36:09;24.90;;;14.27;;
10246;SDS011;5168;47.854;7.944;2023-03-03T17:38:56;22.60;;;13.90;;
10246;SDS011;5168;47.854;7.944;2023-03-03T17:46:47;26.30;;;15.50;;
10246;SDS011;5168;47.854;7.944;2023-03-03T17:49:23;25.80;;;15.57;;
10246;SDS011;5168;47.854;7.944;2023-03-03T17:58:12;23.83;;;15.10;;
10246;SDS011;5168;47.854;7.944;2023-03-03T18:04:04;24.93;;;15.23;;
10246;SDS011;5168;47.854;7.944;2023-03-03T18:26:28;29.87;;;16.93;;
10246;SDS011;5168;47.854;7.944;2023-03-03T18:29:08;22.40;;;15.63;;
10246;SDS011;5168;47.854;7.944;2023-03-03T18:42:35;25.50;;;16.17;;
10246;SDS011;5168;47.854;7.944;2023-03-03T18:45:09;26.67;;;15.70;;
10246;SDS011;5168;47.854;7.944;2023-03-03T18:55:58;28.73;;;17.67;;
10246;SDS011;5168;47.854;7.944;2023-03-03T19:00:56;27.17;;;17.07;;
10246;SDS011;5168;47.854;7.944;2023-03-03T19:03:25;24.77;;;15.90;;
10246;SDS011;5168;47.854;7.944;2023-03-03T19:05:55;23.80;;;15.77;;
10246;SDS011;5168;47.854;7.944;2023-03-03T19:08:30;25.13;;;15.40;;
10246;SDS011;5168;47.854;7.944;2023-03-03T19:16:55;28.53;;;17.87;;
10246;SDS011;5168;47.854;7.944;2023-03-03T19:19:57;27.53;;;18.47;;
10246;SDS011;5168;47.854;7.944;2023-03-03T19:22:50;25.83;;;17.67;;
10246;SDS011;5168;47.854;7.944;2023-03-03T19:25:28;28.17;;;18.83;;
10246;SDS011;5168;47.854;7.944;2023-03-03T19:31:05;32.10;;;18.13;;
10246;SDS011;5168;47.854;7.944;2023-03-03T19:36:13;33.50;;;20.40;;
10246;SDS011;5168;47.854;7.944;2023-03-03T19:46:54;28.80;;;18.40;;
10246;SDS011;5168;47.854;7.944;2023-03-03T19:49:41;26.43;;;17.10;;
10246;SDS011;5168;47.854;7.944;2023-03-03T19:52:32;25.30;;;15.43;;
10246;SDS011;5168;47.854;7.944;2023-03-03T20:09:00;27.73;;;16.63;;
10246;SDS011;5168;47.854;7.944;2023-03-03T20:11:51;27.40;;;17.03;;
10246;SDS011;5168;47.854;7.944;2023-03-03T20:14:26;30.67;;;17.20;;
10246;SDS011;5168;47.854;7.944;2023-03-03T20:23:23;24.70;;;15.57;;
10246;SDS011;5168;47.854;7.944;2023-03-03T20:26:19;28.67;;;17.93;;
10246;SDS011;5168;47.854;7.944;2023-03-03T20:31:43;27.63;;;17.60;;
10246;SDS011;5168;47.854;7.944;2023-03-03T20:35:15;26.40;;;16.90;;
10246;SDS011;5168;47.854;7.944;2023-03-03T20:56:21;24.13;;;15.73;;
10246;SDS011;5168;47.854;7.944;2023-03-03T20:59:16;24.83;;;14.07;;
10246;SDS011;5168;47.854;7.944;2023-03-03T21:01:52;22.60;;;13.57;;
10246;SDS011;5168;47.854;7.944;2023-03-03T21:04:27;21.73;;;13.13;;
10246;SDS011;5168;47.854;7.944;2023-03-03T21:06:54;23.03;;;14.67;;
10246;SDS011;5168;47.854;7.944;2023-03-03T21:11:46;18.73;;;11.97;;
10246;SDS011;5168;47.854;7.944;2023-03-03T21:14:19;22.97;;;13.47;;
10246;SDS011;5168;47.854;7.944;2023-03-03T21:16:45;20.33;;;11.87;;